createdAt,value
2022-10-23T00:01:50.222Z,8.90
2022-10-23T00:04:21.716Z,9.27
2022-10-23T00:06:50.903Z,8.80
2022-10-23T00:09:22.678Z,10.02
2022-10-23T00:14:21.353Z,8.63
2022-10-23T00:16:49.731Z,8.68
2022-10-23T00:19:19.356Z,9.15
2022-10-23T00:21:50.071Z,8.90
2022-10-23T00:24:18.346Z,8.80
2022-10-23T00:26:50.763Z,9.35
2022-10-23T00:29:21.395Z,8.93
2022-10-23T00:31:49.591Z,9.57
2022-10-23T00:34:20.530Z,9.13
2022-10-23T00:36:48.982Z,9.10
2022-10-23T00:41:54.060Z,8.93
2022-10-23T00:44:59.884Z,10.00
2022-10-23T00:47:28.243Z,11.27
2022-10-23T00:49:58.951Z,9.73
2022-10-23T00:52:27.205Z,10.30
2022-10-23T00:54:57.140Z,9.52
2022-10-23T00:57:25.665Z,9.50
2022-10-23T00:59:54.300Z,9.30
2022-10-23T01:02:22.821Z,9.57
2022-10-23T01:04:51.714Z,9.60
2022-10-23T01:07:28.653Z,9.95
2022-10-23T01:10:04.647Z,9.80
2022-10-23T01:12:39.737Z,9.52
2022-10-23T01:15:15.088Z,10.15
2022-10-23T01:17:50.748Z,10.55
2022-10-23T01:20:37.689Z,10.60
2022-10-23T01:23:36.932Z,10.98
2022-10-23T01:26:20.480Z,10.80
2022-10-23T01:28:57.618Z,11.30
2022-10-23T01:31:34.037Z,11.63
2022-10-23T01:34:10.147Z,12.13
2022-10-23T01:36:44.391Z,11.85
2022-10-23T01:39:16.257Z,13.18
2022-10-23T01:41:48.389Z,13.60
2022-10-23T01:44:28.091Z,14.23
2022-10-23T01:46:59.024Z,14.00
2022-10-23T01:49:31.438Z,14.93
2022-10-23T01:52:03.956Z,14.52
2022-10-23T01:54:39.872Z,13.73
2022-10-23T01:57:11.546Z,14.13
2022-10-23T02:02:14.270Z,13.95
2022-10-23T02:04:50.809Z,14.20
2022-10-23T02:07:21.312Z,13.35
2022-10-23T02:09:49.847Z,14.38
2022-10-23T02:12:30.388Z,13.73
2022-10-23T02:15:07.749Z,14.45
2022-10-23T02:17:46.930Z,13.02
2022-10-23T02:20:22.093Z,13.93
2022-10-23T02:23:01.215Z,14.95
2022-10-23T02:25:35.110Z,13.88
2022-10-23T02:28:08.649Z,15.27
2022-10-23T02:30:48.671Z,15.48
2022-10-23T02:33:20.574Z,15.18
2022-10-23T02:35:50.182Z,15.65
2022-10-23T02:38:32.691Z,16.38
2022-10-23T02:41:11.407Z,15.57
2022-10-23T02:43:46.861Z,20.23
2022-10-23T02:46:23.452Z,16.98
2022-10-23T02:49:01.452Z,16.02
2022-10-23T02:51:38.378Z,15.80
2022-10-23T02:54:09.913Z,15.98
2022-10-23T02:56:46.854Z,15.18
2022-10-23T02:59:24.786Z,15.48
2022-10-23T03:02:03.538Z,15.27
2022-10-23T03:04:34.047Z,14.65
2022-10-23T03:07:02.638Z,15.75
2022-10-23T03:09:32.644Z,16.02
2022-10-23T03:12:00.933Z,14.68
2022-10-23T03:14:34.620Z,14.57
2022-10-23T03:17:05.622Z,15.27
2022-10-23T03:19:34.050Z,15.55
2022-10-23T03:22:04.506Z,15.82
2022-10-23T03:24:32.840Z,16.10
2022-10-23T03:27:01.348Z,15.73
2022-10-23T03:29:33.888Z,15.57
2022-10-23T03:32:02.198Z,16.50
2022-10-23T03:34:31.923Z,15.50
2022-10-23T03:37:05.473Z,16.25
2022-10-23T03:39:33.852Z,17.00
2022-10-23T03:42:05.132Z,16.02
2022-10-23T03:44:34.226Z,17.13
2022-10-23T03:47:02.803Z,17.95
2022-10-23T03:49:32.785Z,18.60
2022-10-23T03:52:06.056Z,18.73
2022-10-23T03:54:35.012Z,18.85
2022-10-23T03:57:03.313Z,19.70
2022-10-23T03:59:32.717Z,19.35
2022-10-23T04:02:06.380Z,20.00
2022-10-23T04:04:36.423Z,19.08
2022-10-23T04:07:04.988Z,19.00
2022-10-23T04:09:34.138Z,19.40
2022-10-23T04:12:05.075Z,19.95
2022-10-23T04:14:33.713Z,19.13
2022-10-23T04:17:02.294Z,18.83
2022-10-23T04:19:31.521Z,20.10
2022-10-23T04:22:03.778Z,19.77
2022-10-23T04:24:35.215Z,18.65
2022-10-23T04:27:03.591Z,19.08
2022-10-23T04:29:32.697Z,20.08
2022-10-23T04:32:00.907Z,19.23
2022-10-23T04:34:29.942Z,20.33
2022-10-23T04:37:00.436Z,20.20
2022-10-23T04:39:30.136Z,20.33
2022-10-23T04:41:58.455Z,19.13
2022-10-23T04:44:32.024Z,20.05
2022-10-23T04:47:00.381Z,20.20
2022-10-23T04:49:28.846Z,19.70
2022-10-23T04:52:13.984Z,21.02
2022-10-23T04:55:08.964Z,21.50
2022-10-23T04:57:53.894Z,21.25
2022-10-23T05:02:56.369Z,18.48
2022-10-23T05:05:24.726Z,17.33
2022-10-23T05:08:01.646Z,17.58
2022-10-23T05:10:49.089Z,18.67
2022-10-23T05:13:19.901Z,18.23
2022-10-23T05:15:49.115Z,18.20
2022-10-23T05:18:24.828Z,18.10
2022-10-23T05:20:57.863Z,16.65
2022-10-23T05:23:28.035Z,17.00
2022-10-23T05:26:03.231Z,17.55
2022-10-23T05:28:33.049Z,16.38
2022-10-23T05:31:06.403Z,16.98
2022-10-23T05:33:38.042Z,15.88
2022-10-23T05:36:07.690Z,16.92
2022-10-23T05:38:38.690Z,15.95
2022-10-23T05:41:15.530Z,15.32
2022-10-23T05:43:46.157Z,15.07
2022-10-23T05:46:34.443Z,15.68
2022-10-23T05:52:13.159Z,14.65
2022-10-23T05:54:59.887Z,14.77
2022-10-23T05:57:47.935Z,14.23
2022-10-23T06:00:21.099Z,15.13
2022-10-23T06:03:02.826Z,16.67
2022-10-23T06:08:31.019Z,16.40
2022-10-23T06:11:07.610Z,15.93
2022-10-23T06:13:38.475Z,16.27
2022-10-23T06:16:21.808Z,17.20
2022-10-23T06:18:50.421Z,15.95
2022-10-23T06:21:20.169Z,15.30
2022-10-23T06:23:50.827Z,16.03
2022-10-23T06:26:30.901Z,15.98
2022-10-23T06:29:09.388Z,15.60
2022-10-23T06:31:38.522Z,15.90
2022-10-23T06:34:12.818Z,17.60
2022-10-23T06:36:41.244Z,16.52
2022-10-23T06:39:32.142Z,17.40
2022-10-23T06:42:23.582Z,17.55
2022-10-23T06:44:53.365Z,20.30
2022-10-23T06:47:51.751Z,33.92
2022-10-23T06:50:50.633Z,23.38
2022-10-23T06:53:25.950Z,18.15
2022-10-23T06:56:07.814Z,18.13
2022-10-23T06:58:38.804Z,18.55
2022-10-23T07:01:17.878Z,19.05
2022-10-23T07:03:46.621Z,17.98
2022-10-23T07:06:16.436Z,18.70
2022-10-23T07:08:44.791Z,19.90
2022-10-23T07:11:32.941Z,20.38
2022-10-23T07:14:01.342Z,19.73
2022-10-23T07:16:32.173Z,19.92
2022-10-23T07:19:02.785Z,19.30
2022-10-23T07:21:34.693Z,20.73
2022-10-23T07:24:37.184Z,19.73
2022-10-23T07:27:11.731Z,17.98
2022-10-23T07:29:39.991Z,19.55
2022-10-23T07:32:09.809Z,17.75
2022-10-23T07:34:57.081Z,17.95
2022-10-23T07:37:30.433Z,18.08
2022-10-23T07:40:01.461Z,18.23
2022-10-23T07:42:29.890Z,19.08
2022-10-23T07:44:59.003Z,18.60
2022-10-23T07:47:28.960Z,18.83
2022-10-23T07:49:57.303Z,19.90
2022-10-23T07:52:25.690Z,19.23
2022-10-23T07:55:10.085Z,20.02
2022-10-23T07:57:41.164Z,19.20
2022-10-23T08:00:28.883Z,19.40
2022-10-23T08:03:22.765Z,20.08
2022-10-23T08:05:51.142Z,21.30
2022-10-23T08:08:19.552Z,21.05
2022-10-23T08:13:26.408Z,22.73
2022-10-23T08:16:02.390Z,23.23
2022-10-23T08:18:51.980Z,22.10
2022-10-23T08:21:21.452Z,21.95
2022-10-23T08:23:51.208Z,22.02
2022-10-23T08:26:19.541Z,22.95
2022-10-23T08:28:48.240Z,23.25
2022-10-23T08:31:19.293Z,23.42
2022-10-23T08:34:08.564Z,24.05
2022-10-23T08:36:39.311Z,22.35
2022-10-23T08:39:08.399Z,21.60
2022-10-23T08:41:42.814Z,21.67
2022-10-23T08:44:22.540Z,23.25
2022-10-23T08:46:59.299Z,22.10
2022-10-23T08:49:52.491Z,21.63
2022-10-23T08:52:26.430Z,21.17
2022-10-23T08:55:04.683Z,21.77
2022-10-23T08:57:41.266Z,22.40
2022-10-23T09:00:15.885Z,22.20
2022-10-23T09:02:46.448Z,23.17
2022-10-23T09:05:22.878Z,22.85
2022-10-23T09:08:02.538Z,23.25
2022-10-23T09:10:42.645Z,24.67
2022-10-23T09:13:35.069Z,23.05
2022-10-23T09:16:18.815Z,25.50
2022-10-23T09:18:49.322Z,27.60
2022-10-23T09:21:19.091Z,28.17
2022-10-23T09:26:19.909Z,28.23
2022-10-23T09:28:50.448Z,30.50
2022-10-23T09:31:21.755Z,28.30
2022-10-23T09:33:57.890Z,28.02
2022-10-23T09:36:29.521Z,27.17
2022-10-23T09:41:30.817Z,25.27
2022-10-23T09:44:04.368Z,25.13
2022-10-23T09:49:15.818Z,26.92
2022-10-23T09:51:57.477Z,25.25
2022-10-23T09:56:58.299Z,22.95
2022-10-23T09:59:31.480Z,19.65
2022-10-23T10:02:05.190Z,18.48
2022-10-23T10:04:38.470Z,17.70
2022-10-23T10:07:20.696Z,15.82
2022-10-23T10:09:49.266Z,14.73
2022-10-23T10:12:44.083Z,13.75
2022-10-23T10:15:23.798Z,13.32
2022-10-23T10:18:04.013Z,11.82
2022-10-23T10:20:47.636Z,11.27
2022-10-23T10:23:24.483Z,10.77
2022-10-23T10:26:03.926Z,11.13
2022-10-23T10:28:49.558Z,12.13
2022-10-23T10:31:24.724Z,10.40
2022-10-23T10:34:04.130Z,10.90
2022-10-23T10:36:49.229Z,10.68
2022-10-23T10:39:33.204Z,11.32
2022-10-23T10:42:18.263Z,10.13
2022-10-23T10:45:09.048Z,10.80
2022-10-23T10:47:45.707Z,8.75
2022-10-23T10:50:24.637Z,7.93
2022-10-23T10:53:24.020Z,7.75
2022-10-23T10:55:55.536Z,7.55
2022-10-23T10:58:34.607Z,6.95
2022-10-23T11:01:09.022Z,6.20
2022-10-23T11:08:57.397Z,5.50
2022-10-23T11:11:31.682Z,9.45
2022-10-23T11:14:00.196Z,5.15
2022-10-23T11:16:31.205Z,4.95
2022-10-23T11:19:11.447Z,4.80
2022-10-23T11:21:45.966Z,4.90
2022-10-23T11:24:50.774Z,4.20
2022-10-23T11:27:32.363Z,4.00
2022-10-23T11:30:19.252Z,4.20
2022-10-23T11:33:25.945Z,3.35
2022-10-23T11:36:05.546Z,3.38
2022-10-23T11:38:35.993Z,3.97
2022-10-23T11:41:08.146Z,3.58
2022-10-23T11:43:51.313Z,3.50
2022-10-23T11:46:32.951Z,3.25
2022-10-23T11:51:36.432Z,3.30
2022-10-23T11:54:24.817Z,2.90
2022-10-23T11:56:57.120Z,3.22
2022-10-23T11:59:31.891Z,3.13
2022-10-23T12:02:03.744Z,3.05
2022-10-23T12:04:42.269Z,3.35
2022-10-23T12:07:21.838Z,2.83
2022-10-23T12:09:55.827Z,2.72
2022-10-23T12:12:34.164Z,3.60
2022-10-23T12:15:22.445Z,3.28
2022-10-23T12:17:51.541Z,2.90
2022-10-23T12:20:36.446Z,2.58
2022-10-23T12:23:27.517Z,3.00
2022-10-23T12:26:12.053Z,2.97
2022-10-23T12:28:51.318Z,2.20
2022-10-23T12:31:33.940Z,2.35
2022-10-23T12:36:48.611Z,2.63
2022-10-23T12:39:30.777Z,2.45
2022-10-23T12:42:00.091Z,2.40
2022-10-23T12:44:29.109Z,3.22
2022-10-23T12:47:01.779Z,2.60
2022-10-23T12:49:34.765Z,2.97
2022-10-23T12:52:05.489Z,3.00
2022-10-23T12:54:39.508Z,2.23
2022-10-23T12:57:22.074Z,2.35
2022-10-23T12:59:52.424Z,2.60
2022-10-23T13:02:27.275Z,2.42
2022-10-23T13:04:57.499Z,2.58
2022-10-23T13:07:28.916Z,2.80
2022-10-23T13:10:02.009Z,2.33
2022-10-23T13:12:47.400Z,2.35
2022-10-23T13:15:18.846Z,2.33
2022-10-23T13:18:02.792Z,2.08
2022-10-23T13:20:35.531Z,2.05
2022-10-23T13:23:13.476Z,2.63
2022-10-23T13:25:41.914Z,2.60
2022-10-23T13:28:25.919Z,2.13
2022-10-23T13:31:06.761Z,2.30
2022-10-23T13:33:38.623Z,2.05
2022-10-23T13:36:21.844Z,2.25
2022-10-23T13:39:01.924Z,2.35
2022-10-23T13:41:34.867Z,2.45
2022-10-23T13:44:03.021Z,2.88
2022-10-23T13:46:31.564Z,2.67
2022-10-23T13:49:03.551Z,2.50
2022-10-23T13:51:38.814Z,2.97
2022-10-23T13:54:16.203Z,3.35
2022-10-23T13:56:44.480Z,2.60
2022-10-23T14:01:41.956Z,3.38
2022-10-23T14:04:12.456Z,2.97
2022-10-23T14:06:42.144Z,3.80
2022-10-23T14:09:14.667Z,3.70
2022-10-23T14:11:43.079Z,3.17
2022-10-23T14:14:11.629Z,3.22
2022-10-23T14:16:39.898Z,3.45
2022-10-23T14:19:09.059Z,2.85
2022-10-23T14:21:40.891Z,2.90
2022-10-23T14:26:39.728Z,3.17
2022-10-23T14:51:42.979Z,3.60
2022-10-23T14:54:11.326Z,3.90
2022-10-23T14:56:41.702Z,3.55
2022-10-23T14:59:11.762Z,3.30
2022-10-23T15:01:45.199Z,4.80
2022-10-23T15:04:15.964Z,5.72
2022-10-23T15:06:47.957Z,6.40
2022-10-23T15:09:19.543Z,6.32
2022-10-23T15:11:48.122Z,5.50
2022-10-23T15:14:16.409Z,5.05
2022-10-23T15:16:44.937Z,4.57
2022-10-23T15:19:18.689Z,4.60
2022-10-23T15:21:48.982Z,3.97
2022-10-23T15:24:18.024Z,4.50
2022-10-23T15:26:46.457Z,3.63
2022-10-23T15:29:15.584Z,3.30
2022-10-23T15:31:49.540Z,3.50
2022-10-23T15:34:20.194Z,3.35
2022-10-23T15:36:52.966Z,3.70
2022-10-23T15:39:23.225Z,3.17
2022-10-23T15:41:53.662Z,3.03
2022-10-23T15:44:25.925Z,3.10
2022-10-23T15:46:54.195Z,2.97
2022-10-23T15:49:22.550Z,61.17
2022-10-23T15:51:54.329Z,96.60
2022-10-23T15:54:23.121Z,9.55
2022-10-23T15:56:54.277Z,3.80
2022-10-23T15:59:25.103Z,3.83
2022-10-23T16:01:53.663Z,3.20
2022-10-23T16:04:22.159Z,4.45
2022-10-23T16:06:50.792Z,3.50
2022-10-23T16:09:22.581Z,3.30
2022-10-23T16:11:50.995Z,3.53
2022-10-23T16:14:19.242Z,3.95
2022-10-23T16:16:47.766Z,4.40
2022-10-23T16:19:16.019Z,4.88
2022-10-23T16:21:44.312Z,5.97
2022-10-23T16:24:13.009Z,6.30
2022-10-23T16:26:42.827Z,5.78
2022-10-23T16:29:12.720Z,10.07
2022-10-23T16:31:41.086Z,10.27
2022-10-23T16:34:11.974Z,6.00
2022-10-23T16:36:40.194Z,5.10
2022-10-23T16:39:12.662Z,5.35
2022-10-23T16:42:00.822Z,7.30
2022-10-23T16:44:40.082Z,7.70
2022-10-23T16:47:09.316Z,6.78
2022-10-23T16:49:37.521Z,5.70
2022-10-23T16:52:08.025Z,5.32
2022-10-23T16:54:36.458Z,5.68
2022-10-23T16:57:08.258Z,6.53
2022-10-23T16:59:38.893Z,6.20
2022-10-23T17:02:08.010Z,5.90
2022-10-23T17:04:37.798Z,5.37
2022-10-23T17:07:06.105Z,5.68
2022-10-23T17:09:35.814Z,30.38
2022-10-23T17:12:04.172Z,10.32
2022-10-23T17:14:33.895Z,5.20
2022-10-23T17:17:03.669Z,5.45
2022-10-23T17:19:44.666Z,5.20
2022-10-23T17:22:20.670Z,5.43
2022-10-23T17:24:53.746Z,5.75
2022-10-23T17:27:22.515Z,6.03
2022-10-23T17:29:52.163Z,6.15
2022-10-23T17:34:49.791Z,6.72
2022-10-23T17:37:18.162Z,6.70
2022-10-23T17:39:46.687Z,5.25
2022-10-23T17:52:15.165Z,3.97
2022-10-23T17:54:43.470Z,4.40
2022-10-23T17:57:11.835Z,4.30
2022-10-23T17:59:40.125Z,5.90
2022-10-23T18:02:13.065Z,6.45
2022-10-23T18:04:42.944Z,5.03
2022-10-23T18:07:11.228Z,5.53
2022-10-23T18:09:39.781Z,4.97
2022-10-23T18:12:08.262Z,4.85
2022-10-23T18:14:37.753Z,4.68
2022-10-23T18:17:06.089Z,4.40
2022-10-23T18:19:34.492Z,4.82
2022-10-23T18:22:06.686Z,4.93
2022-10-23T18:24:36.091Z,4.18
2022-10-23T18:27:04.386Z,4.43
2022-10-23T18:29:32.749Z,4.38
2022-10-23T18:32:01.042Z,4.40
2022-10-23T18:34:29.322Z,4.05
2022-10-23T18:36:57.573Z,4.05
2022-10-23T18:39:27.735Z,4.18
2022-10-23T18:44:29.402Z,3.78
2022-10-23T18:46:58.696Z,4.15
2022-10-23T18:49:29.682Z,4.47
2022-10-23T18:51:58.509Z,4.40
2022-10-23T18:54:28.339Z,4.40
2022-10-23T18:56:56.891Z,5.53
2022-10-23T18:59:25.187Z,5.18
2022-10-23T19:01:54.026Z,4.00
2022-10-23T19:04:22.482Z,4.45
2022-10-23T19:06:51.863Z,4.13
2022-10-23T19:09:20.474Z,4.10
2022-10-23T19:11:51.307Z,4.00
2022-10-23T19:14:19.757Z,3.70
2022-10-23T19:16:59.192Z,4.00
2022-10-23T19:19:31.899Z,4.28
2022-10-23T19:22:01.178Z,4.13
2022-10-23T19:24:34.616Z,4.35
2022-10-23T19:27:04.484Z,5.25
2022-10-23T19:29:33.513Z,5.13
2022-10-23T19:32:02.172Z,4.38
2022-10-23T19:34:32.708Z,4.70
2022-10-23T19:37:01.426Z,4.55
2022-10-23T19:39:29.909Z,4.85
2022-10-23T19:42:01.115Z,4.60
2022-10-23T19:44:30.964Z,13.15
2022-10-23T19:46:59.291Z,23.77
2022-10-23T19:49:29.924Z,26.60
2022-10-23T19:51:58.222Z,5.72
2022-10-23T19:54:26.901Z,4.40
2022-10-23T19:56:56.925Z,4.22
2022-10-23T19:59:25.557Z,4.50
2022-10-23T20:01:55.372Z,4.40
2022-10-23T20:04:23.583Z,4.35
2022-10-23T20:06:51.957Z,4.40
2022-10-23T20:09:22.887Z,4.32
2022-10-23T20:11:51.189Z,4.05
2022-10-23T20:14:21.619Z,4.25
2022-10-23T20:16:54.876Z,3.85
2022-10-23T20:19:25.592Z,4.13
2022-10-23T20:21:54.029Z,4.10
2022-10-23T20:24:23.303Z,4.25
2022-10-23T20:26:55.376Z,3.88
2022-10-23T20:29:26.034Z,4.25
2022-10-23T20:31:54.513Z,4.05
2022-10-23T20:34:22.869Z,3.95
2022-10-23T20:36:52.682Z,4.60
2022-10-23T20:41:52.867Z,3.63
2022-10-23T20:44:21.294Z,3.95
2022-10-23T20:46:50.537Z,3.58
2022-10-23T20:49:19.586Z,3.95
2022-10-23T20:51:55.091Z,3.67
2022-10-23T20:54:25.150Z,3.88
2022-10-23T20:56:53.529Z,3.75
2022-10-23T20:59:22.087Z,3.90
2022-10-23T21:01:53.242Z,3.60
2022-10-23T21:04:23.595Z,4.50
2022-10-23T21:07:11.033Z,3.92
2022-10-23T21:09:39.913Z,3.85
2022-10-23T21:12:11.154Z,4.38
2022-10-23T21:14:39.568Z,4.00
2022-10-23T21:17:09.743Z,3.70
2022-10-23T21:19:40.412Z,3.80
2022-10-23T21:22:10.418Z,3.97
2022-10-23T21:24:38.884Z,3.90
2022-10-23T21:27:07.333Z,3.50
2022-10-23T21:29:35.731Z,3.70
2022-10-23T21:32:04.051Z,3.70
2022-10-23T21:34:32.634Z,3.75
2022-10-23T21:37:17.667Z,3.95
2022-10-23T21:39:50.189Z,86.50
2022-10-23T21:42:18.460Z,88.93
2022-10-23T21:44:47.010Z,17.55
2022-10-23T21:47:17.415Z,4.45
2022-10-23T21:49:45.935Z,3.60
2022-10-23T21:52:16.282Z,4.00
2022-10-23T21:54:53.256Z,3.92
2022-10-23T21:57:22.008Z,3.55
2022-10-23T21:59:50.608Z,4.07
2022-10-23T22:02:19.376Z,3.78
2022-10-23T22:04:47.871Z,3.72
2022-10-23T22:07:16.202Z,4.40
2022-10-23T22:09:45.122Z,4.38
2022-10-23T22:12:14.920Z,4.45
2022-10-23T22:14:43.384Z,4.57
2022-10-23T22:17:11.848Z,4.90
2022-10-23T22:19:40.291Z,4.05
2022-10-23T22:22:08.692Z,4.07
2022-10-23T22:24:37.283Z,4.20
2022-10-23T22:27:05.716Z,3.95
2022-10-23T22:29:35.405Z,5.05
2022-10-23T22:32:03.654Z,4.10
2022-10-23T22:34:52.747Z,4.85
2022-10-23T22:37:21.066Z,4.47
2022-10-23T22:39:51.991Z,4.45
2022-10-23T22:42:20.762Z,4.20
2022-10-23T22:44:50.580Z,4.07
2022-10-23T22:47:18.871Z,4.15
2022-10-23T22:49:47.115Z,3.50
2022-10-23T22:52:15.390Z,3.70
2022-10-23T22:54:43.622Z,3.70
2022-10-23T22:57:11.964Z,4.63
2022-10-23T22:59:40.355Z,3.92
2022-10-23T23:02:12.470Z,4.45
2022-10-23T23:04:43.190Z,3.90
2022-10-23T23:07:13.528Z,4.25
2022-10-23T23:09:43.406Z,4.22
2022-10-23T23:12:14.645Z,4.05
2022-10-23T23:14:43.824Z,4.25
2022-10-23T23:17:13.663Z,4.07
2022-10-23T23:19:41.976Z,3.58
2022-10-23T23:22:12.518Z,3.78
2022-10-23T23:24:40.911Z,3.63
2022-10-23T23:27:09.257Z,3.72
2022-10-23T23:29:37.816Z,3.58
2022-10-23T23:32:07.109Z,3.80
2022-10-23T23:34:36.767Z,3.65
2022-10-23T23:37:05.048Z,3.50
2022-10-23T23:39:33.535Z,3.38
2022-10-23T23:42:01.699Z,3.28
2022-10-23T23:44:30.044Z,3.58
2022-10-23T23:46:58.248Z,3.63
2022-10-23T23:49:26.526Z,3.42
2022-10-23T23:51:56.248Z,3.78
2022-10-23T23:54:27.181Z,3.92
2022-10-23T23:56:59.048Z,3.85
2022-10-23T23:59:27.319Z,3.67
